Time;durP1;ratioP1;P1;durP2;ratioP2;P2;SDS_P1;SDS_P2;PMS_P1;PMS_P2;Temp;Humidity;BMP_temperature;BMP_pressure;BME280_temperature;BME280_humidity;BME280_pressure;Samples;Min_cycle;Max_cycle;Signal;HPM_P1;HPM_P2
2022/11/02 08:12:08;;;;;;;8.63;1.83;;;;;;;;;;10713560;27;20018;-86
2022/11/02 08:17:11;;;;;;;4.15;1.70;;;;;;;;;;10700172;27;20042;-84
2022/11/02 08:22:15;;;;;;;6.60;2.15;;;;;;;;;;10701071;27;20037;-84
2022/11/02 08:27:23;;;;;;;11.05;4.97;;;;;;;;;;10689915;27;20113;-85
2022/11/02 08:32:24;;;;;;;10.48;3.78;;;;;;;;;;10679824;27;20475;-85
2022/11/02 08:37:25;;;;;;;9.85;5.15;;;;;;;;;;10670148;27;20044;-85
2022/11/02 08:42:38;;;;;;;10.80;5.25;;;;;;;;;;10666169;27;20019;-86
2022/11/02 08:48:19;;;;;;;14.57;8.45;;;;;;;;;;10669874;27;20023;-85
2022/11/02 08:59:53;;;;;;;;;;;;;;;;;;;;;
2022/11/02 09:04:45;;;;;;;13.13;6.75;;;;;;;;;;10662771;27;20029;-86
2022/11/02 09:16:27;;;;;;;;;;;;;;;;;;;;;
2022/11/02 09:21:48;;;;;;;8.45;3.75;;;;;;;;;;10489344;28;20546;-85
2022/11/02 09:27:28;;;;;;;7.10;2.33;;;;;;;;;;10481203;28;20037;-86
2022/11/02 10:10:33;;;;;;;11.65;5.80;;;;;;;;;;10467755;28;20044;-82
2022/11/02 10:15:59;;;;;;;12.23;4.70;;;;;;;;;;10467344;28;20033;-83
2022/11/02 10:44:30;;;;;;;;;;;;;;;;;;;;;
2022/11/02 10:50:13;;;;;;;8.15;4.10;;;;;;;;;;10348892;28;20093;-84
2022/11/02 11:01:13;;;;;;;10.02;4.20;;;;;;;;;;10345082;28;20057;-83
2022/11/02 11:12:08;;;;;;;5.63;2.10;;;;;;;;;;10542661;28;20048;-82
2022/11/02 11:17:40;;;;;;;6.35;3.35;;;;;;;;;;10531794;28;20062;-82
2022/11/02 11:23:11;;;;;;;10.13;5.97;;;;;;;;;;10530637;28;20112;-83
2022/11/02 11:34:42;;;;;;;8.27;2.40;;;;;;;;;;10538621;28;20025;-82
2022/11/02 11:40:13;;;;;;;6.57;2.00;;;;;;;;;;10412327;28;20045;-84
2022/11/02 11:45:23;;;;;;;;;;;;;;;;;;10388524;28;20033;-81
2022/11/02 11:50:51;;;;;;;9.63;2.90;;;;;;;;;;10431044;28;19960;-83
2022/11/02 11:56:40;;;;;;;9.65;3.47;;;;;;;;;;10389119;28;20026;-83
2022/11/02 12:02:29;;;;;;;7.40;2.95;;;;;;;;;;10349216;28;20109;-82
2022/11/02 12:24:59;;;;;;;6.72;3.03;;;;;;;;;;10490334;28;20522;-83
2022/11/02 12:53:08;;;;;;;7.30;3.88;;;;;;;;;;10565424;28;20024;-81
2022/11/02 12:58:47;;;;;;;4.05;1.77;;;;;;;;;;10547869;28;20233;-82
2022/11/02 13:10:04;;;;;;;4.28;1.90;;;;;;;;;;10562320;28;20100;-82
2022/11/02 13:15:32;;;;;;;5.80;3.10;;;;;;;;;;10539783;28;20052;-83
2022/11/02 13:20:59;;;;;;;5.20;1.77;;;;;;;;;;10392007;28;20033;-79
2022/11/02 13:26:40;;;;;;;5.90;1.85;;;;;;;;;;10414905;28;20054;-81
2022/11/02 13:32:10;;;;;;;6.88;2.35;;;;;;;;;;10518419;28;20097;-81
2022/11/02 13:37:40;;;;;;;6.60;2.35;;;;;;;;;;10548461;28;20036;-83
2022/11/02 14:00:27;;;;;;;7.55;2.10;;;;;;;;;;10472810;28;20025;-82
2022/11/02 14:05:43;;;;;;;11.23;2.33;;;;;;;;;;10469848;28;20080;-81
2022/11/02 14:11:03;;;;;;;7.93;2.20;;;;;;;;;;10497173;28;20047;-83
2022/11/02 14:16:09;;;;;;;8.40;1.98;;;;;;;;;;10553684;28;20043;-82
2022/11/02 14:21:30;;;;;;;6.65;2.05;;;;;;;;;;10551943;28;20042;-82
2022/11/02 14:26:32;;;;;;;7.03;1.88;;;;;;;;;;10563475;28;20108;-82
2022/11/02 14:31:39;;;;;;;7.50;2.03;;;;;;;;;;10546464;28;20032;-82
2022/11/02 14:36:54;;;;;;;5.32;1.88;;;;;;;;;;10548049;28;20031;-83
2022/11/02 14:42:05;;;;;;;5.55;2.10;;;;;;;;;;10544609;28;20060;-83
2022/11/02 14:47:13;;;;;;;7.53;1.77;;;;;;;;;;10543733;28;20059;-83
2022/11/02 14:52:30;;;;;;;7.05;2.13;;;;;;;;;;10543599;28;20057;-83
2022/11/02 14:57:45;;;;;;;6.30;1.95;;;;;;;;;;10545720;28;20055;-83
2022/11/02 15:02:47;;;;;;;6.57;1.77;;;;;;;;;;10542215;28;20537;-81
2022/11/02 15:07:54;;;;;;;5.97;2.00;;;;;;;;;;10540136;28;20040;-82
2022/11/02 15:13:15;;;;;;;6.47;2.20;;;;;;;;;;10543197;28;20025;-81
2022/11/02 15:18:29;;;;;;;7.13;2.05;;;;;;;;;;10548873;28;20032;-81
2022/11/02 15:23:30;;;;;;;7.65;2.10;;;;;;;;;;10551827;28;20047;-82
2022/11/02 15:28:33;;;;;;;7.78;2.30;;;;;;;;;;10544621;28;20115;-81
2022/11/02 15:33:36;;;;;;;5.50;1.77;;;;;;;;;;10565409;28;20036;-81
2022/11/02 15:38:38;;;;;;;6.78;2.00;;;;;;;;;;10550071;28;20043;-81
2022/11/02 15:43:49;;;;;;;5.97;1.80;;;;;;;;;;10553347;28;20037;-81
2022/11/02 15:49:05;;;;;;;6.60;2.15;;;;;;;;;;10548299;28;20036;-82
2022/11/02 15:54:13;;;;;;;6.97;1.80;;;;;;;;;;10549680;28;20032;-84
2022/11/02 15:59:36;;;;;;;5.57;2.10;;;;;;;;;;10551775;28;20063;-82
